Time;durP1;ratioP1;P1;durP2;ratioP2;P2;SDS_P1;SDS_P2;PMS_P1;PMS_P2;Temp;Humidity;BMP_temperature;BMP_pressure;BME280_temperature;BME280_humidity;BME280_pressure;Samples;Min_cycle;Max_cycle;Signal;HPM_P1;HPM_P2
2023/08/15 00:02:16;;;;;;;0.70;0.40;;;17.50;99.90;;;;;;5101790;28;20430;-73
2023/08/15 00:04:41;;;;;;;4.35;0.68;;;17.40;99.90;;;;;;5111698;28;20032;-73
2023/08/15 00:07:07;;;;;;;0.40;0.20;;;17.40;99.90;;;;;;5113477;28;20071;-73
2023/08/15 00:09:33;;;;;;;1.42;0.32;;;17.40;99.90;;;;;;5110106;28;20062;-72
2023/08/15 00:11:59;;;;;;;0.57;0.28;;;17.40;99.90;;;;;;5107768;28;20483;-72
2023/08/15 00:14:25;;;;;;;2.40;0.38;;;17.30;99.90;;;;;;5108016;28;20041;-72
2023/08/15 00:16:52;;;;;;;0.60;0.50;;;17.30;99.90;;;;;;5109618;27;20039;-72
2023/08/15 00:19:17;;;;;;;0.80;0.25;;;17.30;99.90;;;;;;5106082;28;20039;-73
2023/08/15 00:21:43;;;;;;;0.75;0.40;;;17.30;99.90;;;;;;5108328;28;20055;-72
2023/08/15 00:24:09;;;;;;;0.98;0.40;;;17.30;99.90;;;;;;5107459;28;20035;-72
2023/08/15 00:26:35;;;;;;;0.35;0.28;;;17.30;99.90;;;;;;5108464;28;20040;-72
2023/08/15 00:29:00;;;;;;;0.40;0.20;;;17.20;99.90;;;;;;5111322;28;20034;-73
2023/08/15 00:31:26;;;;;;;1.17;0.55;;;17.20;99.90;;;;;;5111026;28;20487;-72
2023/08/15 00:33:52;;;;;;;0.50;0.30;;;17.20;99.90;;;;;;5108918;28;20027;-72
2023/08/15 00:36:17;;;;;;;0.77;0.20;;;17.20;99.90;;;;;;5106271;28;20036;-73
2023/08/15 00:38:43;;;;;;;0.32;0.28;;;17.20;99.90;;;;;;5102020;28;20032;-73
2023/08/15 00:41:09;;;;;;;1.38;0.40;;;17.20;99.90;;;;;;5104352;28;20092;-72
2023/08/15 00:43:36;;;;;;;0.70;0.30;;;17.20;99.90;;;;;;5105855;28;20482;-72
2023/08/15 00:46:05;;;;;;;1.45;0.45;;;17.10;99.90;;;;;;5106371;28;20055;-72
2023/08/15 00:48:32;;;;;;;0.82;0.30;;;17.10;99.90;;;;;;5109366;28;20063;-72
2023/08/15 00:51:00;;;;;;;0.38;0.30;;;17.10;99.90;;;;;;5112605;28;20095;-73
2023/08/15 00:53:28;;;;;;;2.97;0.40;;;17.10;99.90;;;;;;5105732;28;20048;-73
2023/08/15 00:55:57;;;;;;;0.98;0.43;;;17.10;99.90;;;;;;5108649;28;20114;-72
2023/08/15 00:58:24;;;;;;;0.43;0.30;;;17.10;99.90;;;;;;5106366;28;20074;-72
2023/08/15 01:00:53;;;;;;;2.45;0.80;;;17.10;99.90;;;;;;5105690;28;20040;-72
2023/08/15 01:03:19;;;;;;;2.58;0.52;;;17.10;99.90;;;;;;5105920;28;20078;-72
2023/08/15 01:05:46;;;;;;;0.82;0.30;;;17.10;99.90;;;;;;5106623;28;20036;-73
2023/08/15 01:08:12;;;;;;;0.77;0.40;;;17.10;99.90;;;;;;5107730;28;20036;-72
2023/08/15 01:10:39;;;;;;;0.55;0.43;;;17.10;99.90;;;;;;5108645;28;20457;-73
2023/08/15 01:13:12;;;;;;;0.65;0.30;;;17.20;99.90;;;;;;5104479;28;20056;-72
2023/08/15 01:15:43;;;;;;;1.35;0.63;;;17.20;99.90;;;;;;5106213;28;20040;-72
2023/08/15 01:18:17;;;;;;;1.15;0.80;;;17.20;99.90;;;;;;5105722;27;20048;-73
2023/08/15 01:20:42;;;;;;;0.97;0.60;;;17.20;99.90;;;;;;5107972;28;20407;-73
2023/08/15 01:23:12;;;;;;;3.47;0.43;;;17.20;99.90;;;;;;5090174;28;20239;-72
2023/08/15 01:25:42;;;;;;;0.88;0.40;;;17.10;99.90;;;;;;5107670;28;20043;-72
2023/08/15 01:28:12;;;;;;;1.00;0.50;;;17.10;99.90;;;;;;5108389;28;20039;-72
2023/08/15 01:30:46;;;;;;;1.15;0.50;;;17.10;99.90;;;;;;5109903;28;20063;-72
2023/08/15 01:33:30;;;;;;;0.82;0.47;;;17.10;99.90;;;;;;5105639;28;20051;-73
2023/08/15 01:36:11;;;;;;;0.97;0.40;;;17.10;99.90;;;;;;5099864;28;20999;-72
2023/08/15 01:38:45;;;;;;;0.68;0.30;;;17.10;99.90;;;;;;5101943;28;20313;-73
2023/08/15 01:41:17;;;;;;;1.00;0.50;;;17.10;99.90;;;;;;5090774;28;20039;-72
2023/08/15 01:43:44;;;;;;;1.40;0.70;;;17.10;99.90;;;;;;5107820;28;20048;-72
2023/08/15 01:46:11;;;;;;;1.73;0.60;;;17.10;99.90;;;;;;5107823;28;20039;-72
2023/08/15 01:48:42;;;;;;;0.80;0.60;;;17.10;99.90;;;;;;5092669;28;20089;-72
2023/08/15 01:51:08;;;;;;;2.97;0.60;;;17.10;99.90;;;;;;5106414;28;20051;-73
2023/08/15 01:53:35;;;;;;;1.85;0.82;;;17.10;99.90;;;;;;5105440;28;20092;-72
2023/08/15 01:56:02;;;;;;;1.67;0.98;;;17.10;99.90;;;;;;5107208;28;20053;-72
2023/08/15 01:58:27;;;;;;;4.45;0.63;;;17.20;99.90;;;;;;5103825;28;20036;-72
2023/08/15 02:00:53;;;;;;;0.65;0.32;;;17.20;99.90;;;;;;5106984;28;20070;-72
2023/08/15 02:03:19;;;;;;;0.80;0.40;;;17.20;99.90;;;;;;5107844;28;20036;-72
2023/08/15 02:05:45;;;;;;;2.75;0.70;;;17.30;99.90;;;;;;5105356;28;20175;-73
2023/08/15 02:08:10;;;;;;;1.15;0.60;;;17.30;99.90;;;;;;5102869;28;20043;-72
2023/08/15 02:10:36;;;;;;;0.70;0.60;;;17.30;99.90;;;;;;5107286;28;20036;-73
2023/08/15 02:13:02;;;;;;;1.33;0.68;;;17.30;99.90;;;;;;5092488;28;20043;-72
2023/08/15 02:15:27;;;;;;;1.85;0.77;;;17.30;99.90;;;;;;5105162;28;20043;-72
2023/08/15 02:17:53;;;;;;;2.00;0.98;;;17.30;99.90;;;;;;5106067;28;20557;-72
2023/08/15 02:20:19;;;;;;;1.90;1.05;;;17.30;99.90;;;;;;5102120;28;20072;-72
2023/08/15 02:22:44;;;;;;;3.95;0.65;;;17.30;99.90;;;;;;5106249;28;20036;-72
2023/08/15 02:25:10;;;;;;;3.10;1.15;;;17.30;99.90;;;;;;5107490;28;20047;-71
2023/08/15 02:27:36;;;;;;;1.73;0.85;;;17.40;99.90;;;;;;5107499;28;20036;-72
2023/08/15 02:30:03;;;;;;;1.35;0.75;;;17.40;99.90;;;;;;5103823;28;20071;-72
2023/08/15 02:32:28;;;;;;;1.50;1.00;;;17.50;99.90;;;;;;5103273;28;20044;-73
2023/08/15 02:34:54;;;;;;;1.48;0.77;;;17.50;99.90;;;;;;5107437;28;20530;-72
2023/08/15 02:37:20;;;;;;;1.63;0.80;;;17.50;99.90;;;;;;5111394;28;20110;-71
2023/08/15 02:39:45;;;;;;;2.45;0.80;;;17.50;99.90;;;;;;5088713;28;20035;-71
2023/08/15 02:42:11;;;;;;;1.55;0.70;;;17.50;99.90;;;;;;5102878;28;20048;-72
2023/08/15 02:44:38;;;;;;;2.08;0.95;;;17.50;99.90;;;;;;5104408;28;20097;-72
2023/08/15 02:47:04;;;;;;;1.02;0.70;;;17.60;99.90;;;;;;5106419;28;20054;-72
2023/08/15 02:49:30;;;;;;;1.50;0.90;;;17.60;99.90;;;;;;5102409;28;20118;-72
2023/08/15 02:51:56;;;;;;;2.28;0.90;;;17.60;99.90;;;;;;5104213;28;20035;-72
2023/08/15 02:54:21;;;;;;;2.53;1.15;;;17.60;99.90;;;;;;5091534;28;20035;-72
2023/08/15 02:56:47;;;;;;;1.55;0.70;;;17.60;99.90;;;;;;5103336;28;20047;-72
2023/08/15 02:59:13;;;;;;;3.03;1.45;;;17.60;99.90;;;;;;5104395;28;20057;-72
2023/08/15 03:01:39;;;;;;;1.75;1.13;;;17.70;99.90;;;;;;5105376;28;20052;-72
2023/08/15 03:04:07;;;;;;;1.77;0.95;;;17.70;99.90;;;;;;5107081;28;20039;-71
2023/08/15 03:06:33;;;;;;;1.58;0.82;;;17.70;99.90;;;;;;5107683;28;20582;-71
2023/08/15 03:08:58;;;;;;;1.23;0.70;;;17.60;99.90;;;;;;5107602;28;20119;-72
2023/08/15 03:11:24;;;;;;;1.83;1.00;;;17.70;99.90;;;;;;5105956;28;20449;-72
2023/08/15 03:13:50;;;;;;;2.22;1.08;;;17.70;99.90;;;;;;5104109;28;20045;-71
2023/08/15 03:16:15;;;;;;;3.55;1.00;;;17.70;99.90;;;;;;5104540;28;20096;-71
2023/08/15 03:18:41;;;;;;;1.63;0.90;;;17.70;99.90;;;;;;5102931;28;20120;-71
2023/08/15 03:21:09;;;;;;;2.17;0.95;;;17.80;99.90;;;;;;5105505;28;20126;-71
2023/08/15 03:23:37;;;;;;;2.38;1.20;;;17.80;99.90;;;;;;5104620;28;20494;-71
2023/08/15 03:26:04;;;;;;;1.40;0.80;;;17.90;99.90;;;;;;5101222;28;20040;-71
2023/08/15 03:28:31;;;;;;;1.65;0.90;;;18.00;99.90;;;;;;5108806;28;20039;-72
2023/08/15 03:30:56;;;;;;;2.20;0.80;;;18.00;99.90;;;;;;5108849;28;20036;-72
2023/08/15 03:33:23;;;;;;;1.83;0.95;;;18.00;99.90;;;;;;5110691;28;20880;-72
2023/08/15 03:35:51;;;;;;;1.77;0.80;;;18.00;99.90;;;;;;5110128;28;20079;-72
2023/08/15 03:38:19;;;;;;;1.25;0.73;;;18.00;99.90;;;;;;5107601;28;20040;-72
2023/08/15 03:40:46;;;;;;;2.92;1.30;;;18.00;99.90;;;;;;5109483;28;20039;-72
2023/08/15 03:43:12;;;;;;;1.85;1.08;;;18.10;99.90;;;;;;5111903;28;20111;-71
2023/08/15 03:45:39;;;;;;;1.98;1.02;;;18.20;99.90;;;;;;5111041;28;20051;-72
2023/08/15 03:48:09;;;;;;;1.67;0.95;;;18.10;99.90;;;;;;5109509;28;20039;-72
2023/08/15 03:50:36;;;;;;;1.95;0.90;;;18.10;99.90;;;;;;5108747;28;20044;-72
2023/08/15 03:53:02;;;;;;;1.52;0.95;;;18.20;99.90;;;;;;5110454;28;20482;-72
2023/08/15 03:55:29;;;;;;;1.83;1.00;;;18.20;99.90;;;;;;5106860;28;20114;-72
2023/08/15 03:57:55;;;;;;;1.70;0.90;;;18.20;99.90;;;;;;5111013;28;20074;-71
2023/08/15 04:00:21;;;;;;;1.92;0.63;;;18.20;99.90;;;;;;5106128;28;20160;-72
2023/08/15 04:02:46;;;;;;;1.55;0.80;;;18.20;99.90;;;;;;5105923;28;20538;-71
2023/08/15 04:05:13;;;;;;;1.38;0.93;;;18.20;99.90;;;;;;5108529;28;20040;-72
2023/08/15 04:07:39;;;;;;;0.90;0.60;;;18.20;99.90;;;;;;5094199;28;20559;-72
2023/08/15 04:10:06;;;;;;;1.17;0.60;;;18.30;99.90;;;;;;5108327;28;20036;-71
2023/08/15 04:12:33;;;;;;;1.65;0.75;;;18.20;99.90;;;;;;5108788;28;20039;-72
2023/08/15 04:15:02;;;;;;;2.38;1.08;;;18.20;99.90;;;;;;5106516;28;20288;-72
2023/08/15 04:17:27;;;;;;;1.95;1.02;;;18.20;99.90;;;;;;5106922;28;20051;-72
2023/08/15 04:19:53;;;;;;;2.63;1.02;;;18.20;99.90;;;;;;5106214;28;20050;-72
2023/08/15 04:22:19;;;;;;;1.50;0.70;;;18.20;99.90;;;;;;5109179;28;20039;-72
2023/08/15 04:24:45;;;;;;;2.00;0.85;;;18.20;99.90;;;;;;5091809;28;20028;-72
2023/08/15 04:27:11;;;;;;;1.75;0.93;;;18.20;99.90;;;;;;5105617;28;20096;-72
2023/08/15 04:29:37;;;;;;;1.45;0.85;;;18.20;99.90;;;;;;5111091;28;20027;-72
2023/08/15 04:32:03;;;;;;;1.30;0.65;;;18.20;99.90;;;;;;5090139;28;20112;-72
2023/08/15 04:34:28;;;;;;;1.80;0.80;;;18.20;99.90;;;;;;5101263;28;20035;-73
2023/08/15 04:36:54;;;;;;;3.03;0.85;;;18.30;99.90;;;;;;5109689;28;20043;-72
2023/08/15 04:39:23;;;;;;;3.15;0.90;;;18.20;99.90;;;;;;5107146;28;20036;-73
2023/08/15 04:41:50;;;;;;;1.50;0.80;;;18.20;99.90;;;;;;5109621;28;20118;-72
2023/08/15 04:44:15;;;;;;;1.40;1.08;;;18.30;99.90;;;;;;5109726;28;20031;-73
2023/08/15 04:46:41;;;;;;;2.97;1.38;;;18.30;99.90;;;;;;5110190;28;20051;-73
2023/08/15 04:49:07;;;;;;;0.77;0.65;;;18.30;99.90;;;;;;5105678;28;20053;-73
2023/08/15 04:51:33;;;;;;;1.92;0.93;;;18.30;99.90;;;;;;5085023;28;20035;-73
2023/08/15 04:53:58;;;;;;;2.60;0.90;;;18.30;99.90;;;;;;5082810;28;20118;-73
2023/08/15 04:56:24;;;;;;;2.60;0.90;;;18.30;99.90;;;;;;5108142;28;20325;-73
2023/08/15 04:58:50;;;;;;;1.45;0.70;;;18.30;99.90;;;;;;5093239;28;20044;-73
2023/08/15 05:01:16;;;;;;;2.65;0.80;;;18.40;99.90;;;;;;5105234;28;20047;-73
2023/08/15 05:03:41;;;;;;;1.73;0.75;;;18.40;99.90;;;;;;5110420;28;20038;-73
2023/08/15 05:06:07;;;;;;;1.33;0.52;;;18.40;99.90;;;;;;5103778;28;20051;-73
2023/08/15 05:08:33;;;;;;;0.85;0.40;;;18.40;99.90;;;;;;5106312;28;20039;-73
2023/08/15 05:11:00;;;;;;;0.80;0.50;;;18.40;99.90;;;;;;5100631;27;20044;-73
2023/08/15 05:13:26;;;;;;;1.63;0.50;;;18.40;99.90;;;;;;5088198;28;20654;-73
2023/08/15 05:15:53;;;;;;;1.75;0.65;;;18.40;99.90;;;;;;5099055;28;20039;-73
2023/08/15 05:18:19;;;;;;;0.85;0.47;;;18.40;99.90;;;;;;5106786;28;20048;-71
2023/08/15 05:20:48;;;;;;;0.85;0.45;;;18.40;99.90;;;;;;5102024;28;20055;-73
2023/08/15 05:23:15;;;;;;;1.42;0.47;;;18.40;99.90;;;;;;5100116;28;20044;-73
2023/08/15 05:25:43;;;;;;;1.10;0.73;;;18.40;99.90;;;;;;5092823;28;20437;-72
2023/08/15 05:28:10;;;;;;;0.80;0.50;;;18.30;99.90;;;;;;5104544;28;20039;-71
2023/08/15 05:30:36;;;;;;;1.13;0.60;;;18.30;99.90;;;;;;5104931;28;20443;-72
2023/08/15 05:33:02;;;;;;;2.67;0.60;;;18.40;99.90;;;;;;5100294;28;20067;-73
2023/08/15 05:35:28;;;;;;;0.68;0.32;;;18.40;99.90;;;;;;5099919;28;20046;-72
2023/08/15 05:37:54;;;;;;;0.57;0.38;;;18.40;99.90;;;;;;5103558;28;20035;-72
2023/08/15 05:40:21;;;;;;;0.80;0.40;;;18.50;99.90;;;;;;5102623;28;20530;-72
2023/08/15 05:42:47;;;;;;;3.13;0.30;;;18.50;99.90;;;;;;5103189;28;20039;-72
2023/08/15 05:45:13;;;;;;;1.48;0.68;;;18.50;99.90;;;;;;5101902;28;20494;-72
2023/08/15 05:47:39;;;;;;;1.13;0.50;;;18.50;99.90;;;;;;5105533;28;20279;-72
2023/08/15 05:50:05;;;;;;;0.70;0.28;;;18.50;99.90;;;;;;5105507;28;20035;-72
2023/08/15 05:52:31;;;;;;;2.67;0.57;;;18.50;99.90;;;;;;5107974;28;20046;-72
2023/08/15 05:54:57;;;;;;;0.57;0.35;;;18.40;99.90;;;;;;5101963;28;20395;-72
2023/08/15 05:57:23;;;;;;;0.35;0.25;;;18.40;99.90;;;;;;5106980;28;20479;-72
2023/08/15 05:59:49;;;;;;;0.50;0.28;;;18.30;99.90;;;;;;5102997;28;20051;-72
2023/08/15 06:02:15;;;;;;;0.40;0.30;;;18.30;99.90;;;;;;5102900;28;20036;-72
2023/08/15 06:04:40;;;;;;;0.60;0.30;;;18.40;99.90;;;;;;5102510;28;20475;-72
2023/08/15 06:07:07;;;;;;;0.55;0.32;;;18.30;99.90;;;;;;5103350;28;20040;-72
2023/08/15 06:09:33;;;;;;;0.43;0.22;;;18.40;99.90;;;;;;5102234;28;20032;-73
2023/08/15 06:11:58;;;;;;;1.38;0.60;;;18.40;99.90;;;;;;5098896;28;20032;-73
2023/08/15 06:14:24;;;;;;;0.50;0.30;;;18.40;99.90;;;;;;5105417;28;20058;-73
2023/08/15 06:16:50;;;;;;;0.90;0.35;;;18.30;99.90;;;;;;5104658;28;20042;-73
2023/08/15 06:19:17;;;;;;;0.50;0.40;;;18.40;99.90;;;;;;5099674;28;20032;-73
2023/08/15 06:21:43;;;;;;;0.40;0.22;;;18.40;99.90;;;;;;5088207;28;20494;-73
2023/08/15 06:24:09;;;;;;;1.58;0.77;;;18.40;99.90;;;;;;5105001;28;20040;-73
2023/08/15 06:26:35;;;;;;;1.30;0.50;;;18.50;99.90;;;;;;5103751;28;20120;-73
2023/08/15 06:29:02;;;;;;;2.95;0.30;;;18.60;99.90;;;;;;5102377;28;20040;-73
2023/08/15 06:31:28;;;;;;;0.10;0.10;;;18.80;99.90;;;;;;5102279;28;20126;-73
2023/08/15 06:33:53;;;;;;;1.00;0.40;;;18.90;99.90;;;;;;5104382;28;20110;-73
2023/08/15 06:36:19;;;;;;;1.17;0.45;;;19.10;99.90;;;;;;5104181;28;20131;-73
2023/08/15 06:38:45;;;;;;;0.13;0.10;;;19.30;99.90;;;;;;5102287;28;20056;-73
2023/08/15 06:41:11;;;;;;;1.25;0.28;;;19.40;99.90;;;;;;5104808;28;20471;-72
2023/08/15 06:43:37;;;;;;;0.25;0.10;;;19.50;99.90;;;;;;5089445;28;20036;-73
2023/08/15 06:46:03;;;;;;;0.20;0.10;;;19.70;99.90;;;;;;5107414;28;20058;-73
2023/08/15 06:48:29;;;;;;;1.10;0.30;;;19.80;99.90;;;;;;5109774;28;20051;-73
2023/08/15 06:50:55;;;;;;;0.90;0.22;;;19.80;99.90;;;;;;5099449;28;20067;-73
2023/08/15 06:53:21;;;;;;;0.63;0.08;;;19.90;99.90;;;;;;5099798;28;20480;-73
2023/08/15 06:55:50;;;;;;;0.32;0.10;;;20.00;99.90;;;;;;5101430;28;20502;-73
2023/08/15 06:58:17;;;;;;;1.27;0.20;;;20.10;99.90;;;;;;5100335;28;20075;-73
2023/08/15 07:00:44;;;;;;;3.60;0.28;;;20.20;99.90;;;;;;5099667;28;20113;-73
2023/08/15 07:03:10;;;;;;;0.55;0.10;;;20.30;99.90;;;;;;5104761;28;20142;-72
2023/08/15 07:05:36;;;;;;;0.30;0.10;;;20.50;99.90;;;;;;5103300;28;20036;-72
2023/08/15 07:08:03;;;;;;;1.33;0.40;;;20.60;99.90;;;;;;5100060;28;20035;-73
2023/08/15 07:10:33;;;;;;;0.43;0.20;;;20.70;99.90;;;;;;5097736;28;20074;-73
2023/08/15 07:12:59;;;;;;;0.32;0.10;;;20.80;99.90;;;;;;5102589;28;20054;-73
2023/08/15 07:15:28;;;;;;;0.40;0.10;;;20.90;99.90;;;;;;5097751;28;20043;-73
2023/08/15 07:17:53;;;;;;;1.55;0.10;;;21.00;99.90;;;;;;5100073;28;20042;-73
2023/08/15 07:20:20;;;;;;;0.32;0.20;;;21.20;99.90;;;;;;5101982;28;20044;-73
2023/08/15 07:22:45;;;;;;;0.75;0.13;;;21.30;99.90;;;;;;5108183;28;20108;-73
2023/08/15 07:25:12;;;;;;;0.52;0.15;;;21.40;99.90;;;;;;5101320;28;20120;-73
2023/08/15 07:27:38;;;;;;;0.17;0.00;;;21.40;99.90;;;;;;5084154;28;20115;-73
2023/08/15 07:30:08;;;;;;;0.17;0.10;;;21.50;99.90;;;;;;5105123;28;20032;-73
2023/08/15 07:32:37;;;;;;;0.00;0.00;;;21.60;99.90;;;;;;5101129;28;20543;-73
2023/08/15 07:35:04;;;;;;;0.10;0.00;;;21.70;99.90;;;;;;5098894;28;20456;-73
2023/08/15 07:37:30;;;;;;;0.20;0.10;;;21.90;99.90;;;;;;5100679;28;20059;-73
2023/08/15 07:40:08;;;;;;;2.08;0.50;;;21.90;99.90;;;;;;5102847;28;20343;-73
2023/08/15 07:42:34;;;;;;;0.10;0.10;;;21.90;99.90;;;;;;5106500;28;20043;-73
2023/08/15 07:45:00;;;;;;;0.73;0.30;;;21.90;99.90;;;;;;5099818;28;20524;-73
2023/08/15 07:47:26;;;;;;;0.55;0.20;;;22.00;99.90;;;;;;5103506;28;20068;-73
2023/08/15 07:50:11;;;;;;;0.13;0.10;;;22.00;99.90;;;;;;5107376;28;20183;-72
2023/08/15 07:52:37;;;;;;;1.60;0.30;;;22.00;99.90;;;;;;5106973;28;20048;-72
2023/08/15 07:55:03;;;;;;;0.47;0.22;;;21.90;99.90;;;;;;5097666;28;20432;-72
2023/08/15 07:57:29;;;;;;;0.17;0.10;;;21.80;99.90;;;;;;5104120;28;20113;-72
2023/08/15 07:59:54;;;;;;;0.22;0.05;;;21.70;99.90;;;;;;5106255;28;20044;-73
2023/08/15 08:02:20;;;;;;;0.00;0.00;;;21.60;99.90;;;;;;5101045;28;20051;-72
2023/08/15 08:04:46;;;;;;;2.72;0.10;;;21.60;99.90;;;;;;5102476;28;20407;-72
2023/08/15 08:07:11;;;;;;;0.50;0.20;;;21.70;99.90;;;;;;5096932;28;20044;-73
2023/08/15 08:09:37;;;;;;;0.20;0.17;;;21.70;99.90;;;;;;5094545;28;20032;-73
2023/08/15 08:12:03;;;;;;;0.47;0.00;;;21.70;99.90;;;;;;5103912;28;20043;-73
2023/08/15 08:14:29;;;;;;;0.32;0.25;;;21.80;99.90;;;;;;5111784;28;20503;-73
2023/08/15 08:16:55;;;;;;;0.38;0.03;;;21.80;99.90;;;;;;5108563;28;20584;-73
2023/08/15 08:19:20;;;;;;;0.65;0.38;;;22.00;99.90;;;;;;5112680;28;20035;-73
2023/08/15 08:21:46;;;;;;;0.10;0.00;;;22.10;99.90;;;;;;5108736;28;20039;-73
2023/08/15 08:24:12;;;;;;;0.90;0.10;;;22.40;99.90;;;;;;5110574;28;20047;-73
2023/08/15 08:26:38;;;;;;;0.20;0.10;;;22.60;99.90;;;;;;5116584;28;20101;-73
2023/08/15 08:29:04;;;;;;;0.80;0.30;;;22.70;99.90;;;;;;5112790;28;20101;-73
2023/08/15 08:31:29;;;;;;;0.35;0.20;;;22.70;99.90;;;;;;5113111;28;20046;-73
2023/08/15 08:33:56;;;;;;;0.00;0.00;;;22.70;99.90;;;;;;5113079;28;20043;-73
2023/08/15 08:36:22;;;;;;;0.00;0.00;;;22.70;99.90;;;;;;5110163;28;20047;-73
2023/08/15 08:38:47;;;;;;;0.30;0.10;;;22.70;99.90;;;;;;5116421;27;20217;-73
2023/08/15 08:41:13;;;;;;;0.85;0.30;;;22.70;99.90;;;;;;5109948;28;20051;-73
2023/08/15 08:43:40;;;;;;;0.10;0.10;;;22.80;99.90;;;;;;5115504;28;20055;-73
2023/08/15 08:46:07;;;;;;;1.55;0.10;;;22.80;99.90;;;;;;5112227;28;20055;-73
2023/08/15 08:48:34;;;;;;;0.30;0.10;;;22.90;99.90;;;;;;5112053;28;20439;-73
2023/08/15 08:51:00;;;;;;;0.90;0.10;;;23.00;99.90;;;;;;5113143;28;20056;-73
2023/08/15 08:53:26;;;;;;;0.15;0.10;;;23.00;99.90;;;;;;5113916;28;20044;-73
2023/08/15 08:55:52;;;;;;;0.50;0.50;;;23.00;99.90;;;;;;5113662;28;20146;-73
2023/08/15 08:58:19;;;;;;;0.75;0.20;;;22.90;99.90;;;;;;5113514;28;20044;-73
2023/08/15 09:00:45;;;;;;;0.10;0.10;;;22.80;99.90;;;;;;5114064;28;20035;-73
2023/08/15 09:03:11;;;;;;;1.08;0.28;;;23.00;99.90;;;;;;5114778;28;20620;-73
2023/08/15 09:05:40;;;;;;;0.10;0.10;;;23.00;99.90;;;;;;5116354;28;20080;-73
2023/08/15 09:08:06;;;;;;;0.17;0.10;;;23.20;99.90;;;;;;5116423;28;20050;-73
2023/08/15 09:10:32;;;;;;;0.30;0.10;;;23.10;99.90;;;;;;5120840;28;20035;-73
2023/08/15 09:12:59;;;;;;;0.80;0.10;;;23.10;99.90;;;;;;5114224;28;20048;-73
2023/08/15 09:15:25;;;;;;;1.13;0.10;;;23.50;99.90;;;;;;5112278;28;20032;-73
2023/08/15 09:18:00;;;;;;;0.13;0.10;;;23.90;99.90;;;;;;5098948;28;20105;-73
2023/08/15 09:20:26;;;;;;;0.50;0.10;;;23.90;99.90;;;;;;5112773;28;20040;-72
2023/08/15 09:22:58;;;;;;;1.00;0.17;;;23.70;99.90;;;;;;5116683;28;20121;-73
2023/08/15 09:25:27;;;;;;;0.63;0.10;;;23.60;99.90;;;;;;5110318;28;20064;-73
2023/08/15 09:27:53;;;;;;;1.75;0.47;;;23.50;99.90;;;;;;5113415;28;20027;-73
2023/08/15 09:30:20;;;;;;;1.33;0.10;;;23.50;99.90;;;;;;5100429;28;20039;-73
2023/08/15 09:32:46;;;;;;;0.40;0.10;;;23.50;99.90;;;;;;5112764;28;20067;-73
2023/08/15 09:35:14;;;;;;;0.63;0.43;;;23.40;99.90;;;;;;5114762;28;20044;-73
2023/08/15 09:37:48;;;;;;;0.00;0.00;;;23.70;99.90;;;;;;5110222;28;20035;-72
2023/08/15 09:40:16;;;;;;;0.40;0.13;;;23.80;99.90;;;;;;5113255;28;20035;-73
2023/08/15 09:42:43;;;;;;;0.30;0.10;;;24.20;99.90;;;;;;5101607;28;20078;-73
2023/08/15 09:45:11;;;;;;;0.32;0.20;;;24.50;99.90;;;;;;5103875;28;20050;-72
2023/08/15 09:47:38;;;;;;;0.60;0.20;;;24.60;99.90;;;;;;5103341;28;20050;-73
2023/08/15 09:50:06;;;;;;;0.38;0.35;;;24.60;99.90;;;;;;5099580;28;20507;-73
2023/08/15 09:52:34;;;;;;;0.10;0.10;;;24.70;99.90;;;;;;5097870;28;20040;-73
2023/08/15 09:54:59;;;;;;;0.65;0.13;;;24.90;99.90;;;;;;5117132;28;20051;-73
2023/08/15 09:57:25;;;;;;;1.13;0.35;;;25.00;99.90;;;;;;5118435;28;20073;-73
2023/08/15 09:59:51;;;;;;;0.20;0.10;;;24.80;99.90;;;;;;5115789;28;20046;-72
2023/08/15 10:02:22;;;;;;;0.98;0.22;;;24.40;99.90;;;;;;5112894;28;20036;-73
2023/08/15 10:04:57;;;;;;;2.08;0.52;;;24.10;99.90;;;;;;5097035;28;20032;-72
2023/08/15 10:07:26;;;;;;;0.20;0.10;;;23.90;99.90;;;;;;5119673;28;20032;-72
2023/08/15 10:09:53;;;;;;;0.52;0.13;;;23.90;99.90;;;;;;5114369;28;20115;-73
2023/08/15 10:12:20;;;;;;;1.23;0.40;;;24.10;99.90;;;;;;5117174;28;20040;-73
2023/08/15 10:14:46;;;;;;;1.17;0.20;;;24.20;99.90;;;;;;5118738;28;20060;-72
2023/08/15 10:17:12;;;;;;;1.65;0.10;;;24.20;99.90;;;;;;5117592;28;20076;-72
2023/08/15 10:19:44;;;;;;;9.20;5.60;;;24.10;99.90;;;;;;5115437;28;20055;-73
2023/08/15 10:22:10;;;;;;;0.65;0.50;;;23.90;99.90;;;;;;5114759;28;20503;-73
2023/08/15 10:24:36;;;;;;;0.43;0.20;;;23.70;99.90;;;;;;5114750;28;20027;-73
2023/08/15 10:27:01;;;;;;;0.68;0.30;;;23.60;99.90;;;;;;5110499;28;20391;-73
2023/08/15 10:29:29;;;;;;;0.00;0.00;;;23.50;99.90;;;;;;5106553;28;20055;-73
2023/08/15 10:32:00;;;;;;;0.93;0.22;;;23.50;99.90;;;;;;5106912;28;20055;-73
2023/08/15 10:34:33;;;;;;;0.10;0.08;;;23.70;99.90;;;;;;5110077;28;20082;-72
2023/08/15 10:37:31;;;;;;;1.48;0.20;;;24.10;99.90;;;;;;5106412;28;20487;-72
2023/08/15 10:40:12;;;;;;;0.30;0.10;;;24.20;99.90;;;;;;5109319;28;20178;-72
2023/08/15 10:43:02;;;;;;;0.38;0.10;;;24.20;99.90;;;;;;5116106;28;20099;-72
2023/08/15 10:45:38;;;;;;;0.50;0.20;;;24.10;99.90;;;;;;5115273;28;20094;-72
2023/08/15 10:48:04;;;;;;;0.00;0.00;;;24.10;99.90;;;;;;5111710;28;20105;-72
2023/08/15 10:50:30;;;;;;;0.00;0.00;;;24.10;99.90;;;;;;5112402;28;20053;-72
2023/08/15 10:53:04;;;;;;;0.20;0.10;;;24.10;99.90;;;;;;5114442;28;20039;-72
2023/08/15 10:55:35;;;;;;;0.10;0.10;;;24.10;99.90;;;;;;5117264;28;20044;-72
2023/08/15 10:58:07;;;;;;;0.52;0.10;;;24.10;99.90;;;;;;5117074;28;20035;-71
2023/08/15 11:00:34;;;;;;;0.10;0.00;;;24.10;99.90;;;;;;5119114;28;20047;-72
2023/08/15 11:03:01;;;;;;;0.20;0.08;;;24.30;99.90;;;;;;5113141;28;20051;-72
2023/08/15 11:05:27;;;;;;;0.70;0.10;;;24.40;99.90;;;;;;5117960;28;20067;-72
2023/08/15 11:07:55;;;;;;;0.00;0.00;;;24.50;99.90;;;;;;5098731;28;20564;-72
2023/08/15 11:10:22;;;;;;;0.10;0.00;;;24.50;99.90;;;;;;5117503;28;20043;-72
2023/08/15 11:12:49;;;;;;;0.20;0.10;;;24.40;99.90;;;;;;5116278;28;20045;-72
2023/08/15 11:15:18;;;;;;;1.13;0.03;;;24.40;99.90;;;;;;5116709;28;20078;-71
2023/08/15 11:17:45;;;;;;;0.15;0.15;;;24.20;99.90;;;;;;5112669;28;20130;-72
2023/08/15 11:20:11;;;;;;;0.28;0.00;;;24.10;99.90;;;;;;5100245;28;20089;-71
2023/08/15 11:22:37;;;;;;;1.35;0.32;;;24.00;99.90;;;;;;5111632;28;20039;-71
2023/08/15 11:25:07;;;;;;;1.75;0.43;;;23.90;99.90;;;;;;5116324;28;20050;-72
2023/08/15 11:27:39;;;;;;;0.98;0.52;;;23.90;99.90;;;;;;5110876;28;20043;-72
2023/08/15 11:30:06;;;;;;;0.10;0.00;;;23.90;99.90;;;;;;5117375;28;20063;-72
2023/08/15 11:32:32;;;;;;;0.20;0.10;;;23.90;99.90;;;;;;5113714;28;20065;-72
2023/08/15 11:34:59;;;;;;;0.35;0.10;;;23.90;99.90;;;;;;5115671;28;20036;-71
2023/08/15 11:37:25;;;;;;;0.28;0.13;;;23.90;99.90;;;;;;5112390;28;20047;-72
2023/08/15 11:39:53;;;;;;;0.55;0.10;;;24.00;99.90;;;;;;5117123;28;20039;-71
2023/08/15 11:42:20;;;;;;;0.10;0.08;;;24.00;99.90;;;;;;5113772;28;20055;-72
2023/08/15 11:44:46;;;;;;;0.57;0.15;;;24.20;99.90;;;;;;5116083;28;20027;-72
2023/08/15 11:47:15;;;;;;;0.08;0.00;;;24.60;99.90;;;;;;5112592;28;20380;-72
2023/08/15 11:49:45;;;;;;;0.55;0.10;;;24.90;99.90;;;;;;5118276;28;20351;-72
2023/08/15 11:52:10;;;;;;;5.88;0.22;;;25.00;99.90;;;;;;5118341;28;20507;-72
2023/08/15 11:54:36;;;;;;;1.02;0.10;;;25.10;99.90;;;;;;5114415;28;20113;-72
2023/08/15 11:57:02;;;;;;;0.15;0.00;;;25.20;99.90;;;;;;5115033;28;20136;-72
2023/08/15 11:59:32;;;;;;;0.10;0.00;;;25.40;99.90;;;;;;5118534;28;20526;-72
2023/08/15 12:01:58;;;;;;;0.32;0.05;;;25.60;99.90;;;;;;5112242;28;20499;-72
2023/08/15 12:04:24;;;;;;;0.10;0.05;;;25.60;99.90;;;;;;5115936;28;20050;-72
2023/08/15 12:06:50;;;;;;;0.00;0.00;;;25.60;99.90;;;;;;5118397;28;20039;-72
2023/08/15 12:09:17;;;;;;;0.40;0.10;;;25.60;99.90;;;;;;5119117;28;20055;-72
2023/08/15 12:11:43;;;;;;;0.70;0.20;;;25.80;99.90;;;;;;5118300;28;20035;-72
2023/08/15 12:14:21;;;;;;;0.50;0.08;;;25.90;99.90;;;;;;5116253;28;20200;-72
2023/08/15 12:16:47;;;;;;;0.93;0.25;;;25.60;99.90;;;;;;5116138;28;20050;-72
2023/08/15 12:19:14;;;;;;;0.60;0.17;;;25.20;99.90;;;;;;5098265;28;20130;-72
2023/08/15 12:21:39;;;;;;;0.85;0.13;;;24.70;99.90;;;;;;5116356;28;20059;-72
2023/08/15 12:24:05;;;;;;;0.10;0.05;;;24.30;99.90;;;;;;5112173;28;20092;-72
2023/08/15 12:26:31;;;;;;;0.10;0.00;;;24.00;99.90;;;;;;5117215;28;20415;-72
2023/08/15 12:28:57;;;;;;;0.20;0.10;;;23.80;99.90;;;;;;5116609;28;20039;-72
2023/08/15 12:31:23;;;;;;;0.45;0.15;;;23.60;99.90;;;;;;5114114;28;20031;-72
2023/08/15 12:33:48;;;;;;;1.05;0.40;;;23.60;99.90;;;;;;5114753;28;20142;-72
2023/08/15 12:36:15;;;;;;;0.03;0.00;;;23.90;99.90;;;;;;5117157;28;20040;-72
2023/08/15 12:38:42;;;;;;;0.60;0.10;;;24.50;99.90;;;;;;5117297;28;20039;-72
2023/08/15 12:41:08;;;;;;;0.85;0.30;;;25.30;99.90;;;;;;5118972;28;20159;-69
2023/08/15 12:43:34;;;;;;;0.28;0.10;;;26.10;99.90;;;;;;5106825;28;20584;-69
2023/08/15 12:46:00;;;;;;;0.20;0.10;;;26.60;99.90;;;;;;5108660;28;20056;-69
2023/08/15 12:48:26;;;;;;;0.47;0.10;;;26.50;99.90;;;;;;5090661;28;20047;-68